createdAt,value
2023-07-25T00:00:26.711Z,61.92
2023-07-25T00:05:51.650Z,62.14
2023-07-25T00:10:55.989Z,62.10
2023-07-25T00:16:00.246Z,60.98
2023-07-25T00:21:05.174Z,60.47
2023-07-25T00:26:09.111Z,65.56
2023-07-25T00:31:13.019Z,65.52
2023-07-25T00:36:17.225Z,62.99
2023-07-25T00:41:20.984Z,64.08
2023-07-25T00:46:26.096Z,62.90
2023-07-25T00:51:30.315Z,62.50
2023-07-25T00:56:35.040Z,62.75
2023-07-25T01:01:39.875Z,62.29
2023-07-25T01:06:44.840Z,63.70
2023-07-25T01:11:48.607Z,63.15
2023-07-25T01:16:52.683Z,62.52
2023-07-25T01:21:58.783Z,62.25
2023-07-25T01:27:03.720Z,59.52
2023-07-25T01:32:08.900Z,65.31
2023-07-25T01:37:13.130Z,64.04
2023-07-25T01:42:17.135Z,63.10
2023-07-25T01:47:28.201Z,64.28
2023-07-25T01:52:34.234Z,64.02
2023-07-25T01:57:38.038Z,63.37
2023-07-25T02:02:42.628Z,62.61
2023-07-25T02:07:47.445Z,62.02
2023-07-25T02:12:51.572Z,61.43
2023-07-25T02:17:55.704Z,61.35
2023-07-25T02:27:15.038Z,61.18
2023-07-25T02:32:19.111Z,65.68
2023-07-25T02:37:23.050Z,64.73
2023-07-25T02:42:27.121Z,62.36
2023-07-25T02:47:32.241Z,62.71
2023-07-25T02:52:36.324Z,58.99
2023-07-25T02:57:40.350Z,63.75
2023-07-25T03:02:45.051Z,63.74
2023-07-25T03:07:49.382Z,64.57
2023-07-25T03:12:54.387Z,63.27
2023-07-25T03:17:58.602Z,62.47
2023-07-25T03:23:02.826Z,61.78
2023-07-25T03:28:06.839Z,61.01
2023-07-25T03:33:10.902Z,60.13
2023-07-25T03:38:14.958Z,57.52
2023-07-25T03:43:18.977Z,60.70
2023-07-25T03:48:23.200Z,65.90
2023-07-25T03:53:27.055Z,62.58
2023-07-25T03:58:31.170Z,62.12
2023-07-25T04:03:35.656Z,62.36
2023-07-25T04:08:40.004Z,61.22
2023-07-25T04:13:44.695Z,61.79
2023-07-25T04:18:49.027Z,61.67
2023-07-25T04:23:53.070Z,61.11
2023-07-25T04:28:57.422Z,61.56
2023-07-25T04:34:01.589Z,61.12
2023-07-25T04:39:05.994Z,61.02
2023-07-25T04:44:10.425Z,60.68
2023-07-25T04:49:14.671Z,60.73
2023-07-25T04:54:18.800Z,60.71
2023-07-25T04:59:22.923Z,60.50
2023-07-25T05:04:26.858Z,60.60
2023-07-25T05:09:31.096Z,60.74
2023-07-25T05:14:35.737Z,60.62
2023-07-25T05:19:44.623Z,60.46
2023-07-25T05:24:51.650Z,60.35
2023-07-25T05:29:58.487Z,59.93
2023-07-25T05:35:04.355Z,60.11
2023-07-25T05:40:09.190Z,59.94
2023-07-25T05:45:14.713Z,59.78
2023-07-25T05:50:20.957Z,59.80
2023-07-25T05:55:27.412Z,59.95
2023-07-25T06:00:31.854Z,59.55
2023-07-25T06:05:38.806Z,61.57
2023-07-25T06:10:43.912Z,63.03
2023-07-25T06:15:49.617Z,61.23
2023-07-25T06:20:53.847Z,59.55
2023-07-25T06:25:58.088Z,61.91
2023-07-25T06:31:04.383Z,61.51
2023-07-25T06:36:08.524Z,59.32
2023-07-25T06:41:12.946Z,61.80
2023-07-25T06:46:17.193Z,61.02
2023-07-25T06:51:22.237Z,59.65
2023-07-25T06:56:26.270Z,62.41
2023-07-25T07:01:30.926Z,59.08
2023-07-25T07:06:35.177Z,60.80
2023-07-25T07:11:41.062Z,61.40
2023-07-25T07:16:45.232Z,58.59
2023-07-25T07:21:49.712Z,61.79
2023-07-25T07:26:54.258Z,59.95
2023-07-25T07:31:58.580Z,59.38
2023-07-25T07:37:03.044Z,62.09
2023-07-25T07:42:07.474Z,60.22
2023-07-25T07:47:11.710Z,58.08
2023-07-25T07:52:25.786Z,59.82
2023-07-25T07:57:46.496Z,60.40
2023-07-25T08:02:53.239Z,60.73
2023-07-25T08:07:57.803Z,61.58
2023-07-25T08:13:01.979Z,61.59
2023-07-25T08:18:06.192Z,60.88
2023-07-25T08:23:10.538Z,60.49
2023-07-25T08:28:15.203Z,59.46
2023-07-25T08:33:21.489Z,58.58
2023-07-25T08:38:29.898Z,56.53
2023-07-25T08:43:40.977Z,56.54
2023-07-25T08:48:45.137Z,56.56
2023-07-25T08:54:07.234Z,56.23
2023-07-25T08:59:14.271Z,55.30
2023-07-25T09:04:21.859Z,54.42
2023-07-25T09:09:26.153Z,54.06
2023-07-25T09:14:30.602Z,53.38
2023-07-25T09:19:35.251Z,54.00
2023-07-25T09:24:41.566Z,53.19
2023-07-25T09:29:48.154Z,52.81
2023-07-25T09:35:04.228Z,53.31
2023-07-25T09:40:13.192Z,52.98
2023-07-25T09:45:17.332Z,52.70
2023-07-25T09:50:27.964Z,51.04
2023-07-25T09:55:33.940Z,49.66
2023-07-25T10:00:42.454Z,48.90
2023-07-25T10:05:49.793Z,47.64
2023-07-25T10:10:57.351Z,48.72
2023-07-25T10:16:07.145Z,49.10
2023-07-25T10:21:13.383Z,48.83
2023-07-25T10:26:21.586Z,48.42
2023-07-25T10:31:37.294Z,49.40
2023-07-25T10:36:41.374Z,50.08
2023-07-25T10:41:45.603Z,50.56
2023-07-25T10:46:50.673Z,51.35
2023-07-25T10:51:57.971Z,52.10
2023-07-25T10:57:10.886Z,52.06
2023-07-25T11:02:33.329Z,52.10
2023-07-25T11:07:37.567Z,51.83
2023-07-25T11:12:41.536Z,51.81
2023-07-25T11:17:45.586Z,51.51
2023-07-25T11:22:55.264Z,51.30
2023-07-25T11:27:59.553Z,50.18
2023-07-25T11:33:04.109Z,50.14
2023-07-25T11:38:09.490Z,50.43
2023-07-25T11:43:14.718Z,49.72
2023-07-25T11:48:21.828Z,49.46
2023-07-25T11:53:29.926Z,49.43
2023-07-25T11:58:36.660Z,48.34
2023-07-25T12:03:51.383Z,48.57
2023-07-25T12:08:55.502Z,49.02
2023-07-25T12:13:59.948Z,49.67
2023-07-25T12:19:13.862Z,48.65
2023-07-25T12:24:18.355Z,47.86
2023-07-25T12:29:26.686Z,46.36
2023-07-25T12:34:30.754Z,45.27
2023-07-25T12:39:34.998Z,44.99
2023-07-25T12:44:39.466Z,44.51
2023-07-25T12:49:44.331Z,44.53
2023-07-25T12:54:48.941Z,43.41
2023-07-25T12:59:52.975Z,43.38
2023-07-25T13:05:00.742Z,42.49
2023-07-25T13:10:05.592Z,42.42
2023-07-25T13:15:10.515Z,42.87
2023-07-25T13:20:14.637Z,42.98
2023-07-25T13:25:18.979Z,42.70
2023-07-25T13:30:23.218Z,42.22
2023-07-25T13:35:27.970Z,41.40
2023-07-25T13:40:32.310Z,41.93
2023-07-25T13:45:51.170Z,42.47
2023-07-25T13:50:56.539Z,43.10
2023-07-25T13:56:01.384Z,42.86
2023-07-25T14:01:05.973Z,43.07
2023-07-25T14:06:10.401Z,44.11
2023-07-25T14:11:15.331Z,44.77
2023-07-25T14:16:19.876Z,45.24
2023-07-25T14:21:24.216Z,45.38
2023-07-25T14:26:28.819Z,45.97
2023-07-25T14:31:35.626Z,46.68
2023-07-25T14:36:39.980Z,47.30
2023-07-25T14:41:44.430Z,47.36
2023-07-25T14:46:49.120Z,47.74
2023-07-25T14:51:53.305Z,48.14
2023-07-25T14:56:57.299Z,48.48
2023-07-25T15:02:01.612Z,48.51
2023-07-25T15:07:06.912Z,48.75
2023-07-25T15:12:11.698Z,49.68
2023-07-25T15:17:24.201Z,50.39
2023-07-25T15:22:29.431Z,50.87
2023-07-25T15:27:33.737Z,51.22
2023-07-25T15:32:38.232Z,51.68
2023-07-25T15:37:42.731Z,52.24
2023-07-25T15:42:47.144Z,52.63
2023-07-25T15:47:51.604Z,52.63
2023-07-25T15:52:56.233Z,52.64
2023-07-25T15:58:00.778Z,52.82
2023-07-25T16:03:05.519Z,53.54
2023-07-25T16:08:09.984Z,54.21
2023-07-25T16:13:16.389Z,54.86
2023-07-25T16:18:20.489Z,55.22
2023-07-25T16:23:25.041Z,55.71
2023-07-25T16:28:39.165Z,56.15
2023-07-25T16:33:47.157Z,56.68
2023-07-25T16:38:56.962Z,56.99
2023-07-25T16:44:04.759Z,57.59
2023-07-25T16:49:09.286Z,58.28
2023-07-25T16:54:13.403Z,58.63
2023-07-25T16:59:17.733Z,59.16
2023-07-25T17:04:21.745Z,59.53
2023-07-25T17:09:25.981Z,59.65
2023-07-25T17:14:30.127Z,60.00
2023-07-25T17:19:35.073Z,60.07
2023-07-25T17:24:39.923Z,60.40
2023-07-25T17:29:44.374Z,60.56
2023-07-25T17:34:48.499Z,60.91
2023-07-25T17:39:52.698Z,60.97
2023-07-25T17:51:11.688Z,61.49
2023-07-25T17:56:15.906Z,61.82
2023-07-25T18:01:20.067Z,67.33
2023-07-25T18:06:24.478Z,63.97
2023-07-25T18:11:28.831Z,56.61
2023-07-25T18:16:33.661Z,55.56
2023-07-25T18:21:37.902Z,56.83
2023-07-25T18:26:44.003Z,57.82
2023-07-25T18:31:48.692Z,59.70
2023-07-25T18:36:52.884Z,60.50
2023-07-25T18:41:57.299Z,61.29
2023-07-25T18:47:01.310Z,68.27
2023-07-25T18:52:06.653Z,63.53
2023-07-25T18:57:21.507Z,57.22
2023-07-25T19:02:25.679Z,57.70
2023-07-25T19:07:30.266Z,59.85
2023-07-25T19:12:34.922Z,60.97
2023-07-25T19:17:39.602Z,62.15
2023-07-25T19:22:44.018Z,68.43
2023-07-25T19:27:49.868Z,64.13
2023-07-25T19:32:54.060Z,60.49
2023-07-25T19:37:58.234Z,57.01
2023-07-25T19:43:02.999Z,58.38
2023-07-25T19:48:08.035Z,60.60
2023-07-25T19:53:16.898Z,62.47
2023-07-25T19:58:21.960Z,67.23
2023-07-25T20:03:26.121Z,62.55
2023-07-25T20:08:30.365Z,59.10
2023-07-25T20:13:37.132Z,57.83
2023-07-25T20:18:41.748Z,60.37
2023-07-25T20:23:46.089Z,63.88
2023-07-25T20:28:50.851Z,65.80
2023-07-25T20:33:55.407Z,61.96
2023-07-25T20:38:59.917Z,59.71
2023-07-25T20:44:04.182Z,57.88
2023-07-25T20:49:08.407Z,60.23
2023-07-25T20:54:13.146Z,61.80
2023-07-25T20:59:17.602Z,67.36
2023-07-25T21:04:22.029Z,64.85
2023-07-25T21:09:26.275Z,61.34
2023-07-25T21:14:30.894Z,58.03
2023-07-25T21:19:35.366Z,59.72
2023-07-25T21:24:39.954Z,61.58
2023-07-25T21:29:44.231Z,67.02
2023-07-25T21:34:48.982Z,64.59
2023-07-25T21:39:53.744Z,61.65
2023-07-25T21:44:57.874Z,60.47
2023-07-25T21:50:02.419Z,59.45
2023-07-25T21:55:07.523Z,57.69
2023-07-25T22:00:13.142Z,59.60
2023-07-25T22:05:17.399Z,62.50
2023-07-25T22:10:21.815Z,66.76
2023-07-25T22:15:25.944Z,62.70
2023-07-25T22:20:38.271Z,60.38
2023-07-25T22:25:50.994Z,57.48
2023-07-25T22:30:55.851Z,59.44
2023-07-25T22:36:00.127Z,61.77
2023-07-25T22:41:05.774Z,67.02
2023-07-25T22:46:10.243Z,63.78
2023-07-25T22:51:14.441Z,61.39
2023-07-25T22:56:18.792Z,59.35
2023-07-25T23:01:23.469Z,58.52
2023-07-25T23:06:27.984Z,61.49
2023-07-25T23:11:32.318Z,66.68
2023-07-25T23:16:36.440Z,63.74
2023-07-25T23:21:42.209Z,61.66
2023-07-25T23:26:46.439Z,60.73
2023-07-25T23:31:50.889Z,60.42
2023-07-25T23:36:56.365Z,59.78
2023-07-25T23:42:00.506Z,58.58
2023-07-25T23:47:06.023Z,61.31
2023-07-25T23:52:10.405Z,66.12
2023-07-25T23:57:14.538Z,66.03
